createdAt,value
2019-05-02T00:04:37.206Z,5.87
2019-05-02T00:07:23.490Z,5.93
2019-05-02T00:10:07.160Z,6.97
2019-05-02T00:12:34.165Z,7.87
2019-05-02T00:15:02.130Z,7.27
2019-05-02T00:17:29.541Z,6.93
2019-05-02T00:20:15.982Z,7.67
2019-05-02T00:22:55.850Z,7.43
2019-05-02T00:25:42.089Z,7.50
2019-05-02T00:28:21.931Z,7.23
2019-05-02T00:31:11.636Z,8.27
2019-05-02T00:33:36.567Z,7.83
2019-05-02T00:36:23.342Z,7.40
2019-05-02T00:39:09.619Z,7.73
2019-05-02T00:41:38.414Z,7.80
2019-05-02T00:44:06.085Z,7.70
2019-05-02T00:49:01.811Z,7.10
2019-05-02T00:54:19.161Z,8.30
2019-05-02T00:56:45.376Z,7.77
2019-05-02T01:02:31.241Z,7.33
2019-05-02T01:05:17.602Z,7.60
2019-05-02T01:08:01.148Z,7.67
2019-05-02T01:10:45.927Z,8.23
2019-05-02T01:13:26.916Z,7.43
2019-05-02T01:15:53.419Z,7.80
2019-05-02T01:18:41.285Z,8.07
2019-05-02T01:21:22.164Z,7.93
2019-05-02T01:24:08.482Z,8.87
2019-05-02T01:27:14.583Z,8.50
2019-05-02T01:30:01.479Z,8.67
2019-05-02T01:35:20.266Z,8.57
2019-05-02T01:38:31.652Z,7.60
2019-05-02T01:41:07.759Z,8.13
2019-05-02T01:43:54.958Z,7.30
2019-05-02T01:46:36.094Z,8.13
2019-05-02T01:49:23.211Z,7.57
2019-05-02T01:52:04.118Z,6.20
2019-05-02T01:54:50.339Z,7.20
2019-05-02T01:57:30.196Z,6.50
2019-05-02T02:00:16.458Z,7.60
2019-05-02T02:02:56.462Z,7.20
2019-05-02T02:05:42.879Z,6.33
2019-05-02T02:08:32.627Z,6.80
2019-05-02T02:11:11.345Z,6.73
2019-05-02T02:13:58.032Z,6.83
2019-05-02T02:16:39.334Z,6.97
2019-05-02T02:19:26.751Z,6.53
2019-05-02T02:22:14.899Z,5.63
2019-05-02T02:25:02.937Z,5.37
2019-05-02T02:27:49.223Z,5.70
2019-05-02T02:30:17.597Z,6.67
2019-05-02T02:32:44.204Z,6.37
2019-05-02T02:35:12.686Z,5.77
2019-05-02T02:37:55.219Z,6.63
2019-05-02T02:40:35.658Z,5.50
2019-05-02T02:43:33.519Z,6.70
2019-05-02T02:46:06.194Z,5.13
2019-05-02T02:48:52.567Z,5.13
2019-05-02T02:51:32.770Z,5.63
2019-05-02T02:54:19.001Z,5.87
2019-05-02T02:56:45.626Z,5.50
2019-05-02T02:59:31.789Z,5.23
2019-05-02T03:02:09.092Z,5.13
2019-05-02T03:04:44.092Z,5.50
2019-05-02T03:07:08.240Z,5.57
2019-05-02T03:09:59.429Z,5.10
2019-05-02T03:12:56.911Z,5.50
2019-05-02T03:18:21.137Z,5.90
2019-05-02T03:21:01.507Z,6.50
2019-05-02T03:23:48.053Z,5.67
2019-05-02T03:26:34.332Z,5.87
2019-05-02T03:29:15.014Z,5.43
2019-05-02T03:31:41.868Z,6.40
2019-05-02T03:34:45.383Z,6.80
2019-05-02T03:37:13.902Z,6.27
2019-05-02T03:40:00.697Z,6.23
2019-05-02T03:42:44.752Z,5.50
2019-05-02T03:45:32.341Z,6.10
2019-05-02T03:51:22.264Z,6.03
2019-05-02T03:53:46.594Z,6.30
2019-05-02T03:56:32.828Z,6.03
2019-05-02T03:58:59.347Z,5.70
2019-05-02T04:01:45.684Z,5.57
2019-05-02T04:04:25.364Z,5.90
2019-05-02T04:06:54.859Z,5.80
2019-05-02T04:09:38.755Z,5.50
2019-05-02T04:12:22.250Z,5.90
2019-05-02T04:15:03.564Z,5.57
2019-05-02T04:17:50.273Z,4.97
2019-05-02T04:20:29.894Z,4.70
2019-05-02T04:23:21.179Z,5.60
2019-05-02T04:29:14.015Z,5.23
2019-05-02T04:32:04.503Z,4.80
2019-05-02T04:34:41.920Z,4.20
2019-05-02T04:37:08.479Z,4.07
2019-05-02T04:39:59.149Z,4.53
2019-05-02T04:42:39.667Z,4.33
2019-05-02T04:45:35.985Z,4.50
2019-05-02T04:48:08.558Z,3.60
2019-05-02T04:51:08.655Z,3.87
2019-05-02T04:53:42.241Z,2.97
2019-05-02T04:56:09.694Z,3.83
2019-05-02T04:58:48.989Z,3.53
2019-05-02T05:01:14.199Z,3.27
2019-05-02T05:04:03.110Z,2.97
2019-05-02T05:06:54.930Z,3.17
2019-05-02T05:09:14.661Z,2.80
2019-05-02T05:11:38.705Z,3.47
2019-05-02T05:14:24.934Z,3.00
2019-05-02T05:16:55.475Z,3.50
2019-05-02T05:19:39.488Z,3.50
2019-05-02T05:22:19.052Z,3.90
2019-05-02T05:25:25.125Z,4.10
2019-05-02T05:27:52.763Z,3.87
2019-05-02T05:30:45.203Z,3.60
2019-05-02T05:33:21.436Z,3.93
2019-05-02T05:35:48.749Z,4.00
2019-05-02T05:41:13.165Z,4.47
2019-05-02T05:43:38.154Z,3.77
2019-05-02T05:48:47.705Z,3.43
2019-05-02T05:51:33.997Z,3.30
2019-05-02T05:54:03.166Z,3.20
2019-05-02T05:58:59.206Z,2.90
2019-05-02T06:01:39.172Z,3.27
2019-05-02T06:04:32.639Z,2.50
2019-05-02T06:07:07.579Z,2.67
2019-05-02T06:09:33.971Z,2.10
2019-05-02T06:12:20.206Z,3.23
2019-05-02T06:14:46.702Z,3.30
2019-05-02T06:17:13.146Z,2.90
2019-05-02T06:19:55.306Z,2.20
2019-05-02T06:22:41.508Z,2.23
2019-05-02T06:25:32.810Z,3.07
2019-05-02T06:28:09.770Z,2.87
2019-05-02T06:30:36.154Z,3.13
2019-05-02T06:33:25.815Z,2.03
2019-05-02T06:36:04.005Z,4.60
2019-05-02T06:38:52.111Z,2.03
2019-05-02T06:41:33.875Z,1.97
2019-05-02T06:44:23.994Z,2.13
2019-05-02T06:46:48.398Z,1.80
2019-05-02T06:49:34.618Z,1.57
2019-05-02T06:52:15.334Z,2.17
2019-05-02T06:54:41.908Z,2.13
2019-05-02T06:57:28.257Z,2.13
2019-05-02T07:00:07.777Z,1.57
2019-05-02T07:02:54.229Z,2.23
2019-05-02T07:05:34.052Z,1.90
2019-05-02T07:08:00.671Z,5.33
2019-05-02T07:10:46.936Z,1.63
2019-05-02T07:13:15.118Z,1.60
2019-05-02T07:20:55.455Z,1.23
2019-05-02T07:23:42.657Z,1.80
2019-05-02T07:26:23.275Z,1.20
2019-05-02T07:29:09.740Z,1.57
2019-05-02T07:31:49.772Z,1.13
2019-05-02T07:34:36.004Z,1.00
2019-05-02T07:37:15.631Z,0.70
2019-05-02T07:42:59.923Z,1.40
2019-05-02T07:45:26.413Z,0.70
2019-05-02T07:48:17.597Z,1.60
2019-05-02T07:50:54.508Z,1.10
2019-05-02T07:53:44.530Z,1.10
2019-05-02T07:56:23.112Z,0.90
2019-05-02T07:59:09.447Z,1.00
2019-05-02T08:01:50.897Z,0.70
2019-05-02T08:04:17.510Z,0.83
2019-05-02T08:07:03.754Z,0.80
2019-05-02T08:09:50.010Z,1.30
2019-05-02T08:12:16.659Z,0.70
2019-05-02T08:18:10.687Z,0.83
2019-05-02T08:20:55.496Z,1.03
2019-05-02T08:23:39.074Z,0.50
2019-05-02T08:26:21.567Z,0.63
2019-05-02T08:32:08.459Z,0.80
2019-05-02T08:34:54.713Z,0.60
2019-05-02T08:37:35.436Z,0.70
2019-05-02T08:40:22.626Z,0.77
2019-05-02T08:43:09.356Z,0.80
2019-05-02T08:45:52.106Z,0.87
2019-05-02T08:48:41.808Z,0.53
2019-05-02T08:51:06.705Z,0.53
2019-05-02T08:53:56.933Z,0.60
2019-05-02T08:56:35.347Z,0.63
2019-05-02T08:59:24.494Z,0.67
2019-05-02T09:02:03.684Z,1.90
2019-05-02T09:04:58.249Z,0.70
2019-05-02T09:07:36.550Z,0.60
2019-05-02T09:10:19.830Z,0.57
2019-05-02T09:12:59.841Z,0.73
2019-05-02T09:15:50.995Z,1.17
2019-05-02T09:18:35.129Z,0.83
2019-05-02T09:21:12.555Z,0.80
2019-05-02T09:23:41.188Z,1.10
2019-05-02T09:26:33.272Z,1.10
2019-05-02T09:29:09.153Z,0.83
2019-05-02T09:31:49.117Z,0.80
2019-05-02T09:34:17.014Z,1.10
2019-05-02T09:36:57.811Z,0.80
2019-05-02T09:39:44.056Z,1.00
2019-05-02T09:42:23.932Z,0.90
2019-05-02T09:48:17.259Z,0.90
2019-05-02T09:51:04.547Z,1.40
2019-05-02T09:53:43.354Z,1.00
2019-05-02T09:56:09.709Z,0.90
2019-05-02T09:59:06.421Z,1.20
2019-05-02T10:01:38.996Z,1.07
2019-05-02T10:04:25.387Z,1.13
2019-05-02T10:07:05.544Z,0.90
2019-05-02T10:09:51.988Z,1.77
2019-05-02T10:12:32.120Z,1.37
2019-05-02T10:15:18.394Z,1.00
2019-05-02T10:18:08.806Z,1.10
2019-05-02T10:20:34.153Z,1.20
2019-05-02T10:22:58.400Z,1.20
2019-05-02T10:25:25.017Z,1.70
2019-05-02T10:27:52.317Z,1.30
2019-05-02T10:33:12.169Z,2.60
2019-05-02T10:35:58.555Z,2.67
2019-05-02T10:38:25.097Z,1.80
2019-05-02T10:41:12.003Z,1.53
2019-05-02T10:43:56.614Z,1.23
2019-05-02T10:46:37.742Z,1.73
2019-05-02T10:49:44.010Z,1.50
2019-05-02T10:52:34.010Z,0.90
2019-05-02T10:57:52.740Z,1.10
2019-05-02T11:00:38.939Z,1.20
2019-05-02T11:03:23.989Z,1.67
2019-05-02T11:06:12.445Z,1.20
2019-05-02T11:08:56.797Z,1.50
2019-05-02T11:12:04.754Z,1.20
2019-05-02T11:14:51.557Z,1.37
2019-05-02T11:17:36.110Z,1.10
2019-05-02T11:20:22.473Z,1.17
2019-05-02T11:23:02.698Z,1.37
2019-05-02T11:25:29.240Z,1.63
2019-05-02T11:28:15.582Z,1.30
2019-05-02T11:30:57.052Z,1.17
2019-05-02T11:33:43.902Z,2.03
2019-05-02T11:36:23.578Z,3.17
2019-05-02T11:39:00.634Z,1.57
2019-05-02T11:41:31.919Z,1.17
2019-05-02T11:44:18.150Z,2.03
2019-05-02T11:46:55.887Z,1.30
2019-05-02T11:49:35.459Z,2.50
2019-05-02T11:52:04.555Z,1.83
2019-05-02T11:54:52.001Z,2.23
2019-05-02T11:57:33.197Z,2.07
2019-05-02T12:00:21.743Z,1.10
2019-05-02T12:06:02.035Z,1.43
2019-05-02T12:08:28.716Z,0.90
2019-05-02T12:11:17.645Z,1.43
2019-05-02T12:13:57.077Z,0.80
2019-05-02T12:16:43.381Z,1.00
2019-05-02T12:19:23.497Z,1.17
2019-05-02T12:22:07.173Z,1.10
2019-05-02T12:24:32.001Z,1.23
2019-05-02T12:27:13.497Z,1.43
2019-05-02T12:29:39.811Z,1.27
2019-05-02T12:32:26.050Z,1.13
2019-05-02T12:34:52.719Z,1.50
2019-05-02T12:37:39.041Z,1.43
2019-05-02T12:40:06.178Z,0.97
2019-05-02T12:42:52.636Z,1.30
2019-05-02T12:45:19.251Z,1.40
2019-05-02T12:48:05.682Z,1.37
2019-05-02T12:50:45.423Z,2.20
2019-05-02T12:53:12.607Z,21.57
2019-05-02T12:58:21.347Z,1.03
2019-05-02T13:00:47.965Z,1.00
2019-05-02T13:06:37.393Z,1.00
2019-05-02T13:09:23.637Z,1.73
2019-05-02T13:12:03.227Z,1.17
2019-05-02T13:14:49.366Z,0.87
2019-05-02T13:17:35.748Z,1.00
2019-05-02T13:20:22.274Z,1.10
2019-05-02T13:23:03.569Z,1.00
2019-05-02T13:28:49.195Z,1.47
2019-05-02T13:31:55.383Z,2.37
2019-05-02T13:40:45.359Z,1.37
2019-05-02T13:43:33.523Z,1.90
2019-05-02T13:46:22.046Z,1.67
2019-05-02T13:48:48.499Z,1.70
2019-05-02T13:51:15.114Z,1.40
2019-05-02T13:56:59.135Z,0.80
2019-05-02T13:59:25.445Z,0.90
2019-05-02T14:02:31.828Z,1.30
2019-05-02T14:05:12.904Z,1.47
2019-05-02T14:08:19.100Z,1.07
2019-05-02T14:11:06.155Z,1.37
2019-05-02T14:16:49.857Z,1.73
2019-05-02T14:19:36.091Z,1.93
2019-05-02T14:22:16.018Z,1.10
2019-05-02T14:25:02.761Z,1.03
2019-05-02T14:27:53.743Z,0.80
2019-05-02T14:30:39.108Z,1.20
2019-05-02T14:35:59.306Z,1.63
2019-05-02T14:38:25.870Z,1.23
2019-05-02T14:41:12.558Z,0.70
2019-05-02T14:43:54.011Z,1.03
2019-05-02T14:46:42.403Z,1.53
2019-05-02T14:49:25.503Z,0.80
2019-05-02T14:52:10.498Z,0.67
2019-05-02T14:57:49.230Z,1.00
2019-05-02T15:03:42.307Z,0.20
2019-05-02T15:06:08.723Z,0.20
2019-05-02T15:08:54.961Z,0.30
2019-05-02T15:11:37.019Z,0.93
2019-05-02T15:14:03.485Z,0.50
2019-05-02T15:16:54.067Z,0.30
2019-05-02T15:19:37.987Z,1.70
2019-05-02T15:22:17.551Z,1.13
2019-05-02T15:25:25.514Z,0.80
2019-05-02T15:28:07.645Z,0.70
2019-05-02T15:31:13.778Z,0.80
2019-05-02T15:34:13.948Z,1.10
2019-05-02T15:36:42.283Z,3.33
2019-05-02T15:42:13.004Z,2.73
2019-05-02T15:44:57.155Z,1.00
2019-05-02T15:47:41.603Z,0.80
2019-05-02T15:50:25.897Z,0.90
2019-05-02T15:55:43.589Z,3.13
2019-05-02T15:58:28.343Z,2.97
2019-05-02T16:01:28.810Z,3.07
2019-05-02T16:07:16.297Z,1.80
2019-05-02T16:15:27.813Z,2.87
2019-05-02T16:21:17.934Z,1.50
2019-05-02T16:24:23.464Z,6.00
2019-05-02T16:27:03.577Z,3.53
2019-05-02T16:29:49.856Z,5.30
2019-05-02T16:32:35.774Z,1.53
2019-05-02T16:38:26.859Z,3.20
2019-05-02T16:41:11.428Z,1.93
2019-05-02T16:43:53.894Z,2.77
2019-05-02T16:46:40.151Z,1.13
2019-05-02T16:49:19.670Z,2.90
2019-05-02T16:52:08.445Z,1.70
2019-05-02T16:54:48.207Z,3.50
2019-05-02T16:57:35.135Z,1.30
2019-05-02T17:00:18.914Z,5.83
2019-05-02T17:02:46.518Z,1.90
2019-05-02T17:05:27.283Z,1.90
2019-05-02T17:08:33.262Z,2.50
2019-05-02T17:11:35.890Z,2.10
2019-05-02T17:14:22.070Z,1.83
2019-05-02T17:16:52.414Z,4.07
2019-05-02T17:19:38.163Z,4.53
2019-05-02T17:22:21.933Z,7.00
2019-05-02T17:25:06.111Z,2.70
2019-05-02T17:27:46.271Z,3.00
2019-05-02T17:30:38.692Z,3.30
2019-05-02T17:33:16.307Z,2.53
2019-05-02T17:36:02.583Z,3.10
2019-05-02T17:38:42.833Z,4.20
2019-05-02T17:44:24.052Z,2.00
2019-05-02T17:47:09.666Z,1.03
2019-05-02T17:49:52.870Z,3.20
2019-05-02T17:55:13.337Z,1.70
2019-05-02T17:57:59.551Z,2.00
2019-05-02T18:00:47.470Z,4.37
2019-05-02T18:03:31.203Z,2.33
2019-05-02T18:06:17.347Z,2.10
2019-05-02T18:08:58.827Z,3.10
2019-05-02T18:11:29.701Z,3.00
2019-05-02T18:14:19.649Z,2.27
2019-05-02T18:16:42.063Z,1.90
2019-05-02T18:19:24.600Z,2.50
2019-05-02T18:22:22.480Z,3.93
2019-05-02T18:24:52.733Z,2.70
2019-05-02T18:27:39.079Z,2.97
2019-05-02T18:30:24.972Z,4.73
2019-05-02T18:33:07.816Z,3.23
2019-05-02T18:35:48.214Z,3.10
2019-05-02T18:38:34.572Z,2.77
2019-05-02T18:41:14.623Z,2.53
2019-05-02T18:44:02.723Z,5.03
2019-05-02T18:46:42.933Z,2.50
2019-05-02T18:49:29.289Z,2.53
2019-05-02T18:52:09.014Z,2.80
2019-05-02T18:54:55.373Z,2.50
2019-05-02T18:57:34.908Z,4.17
2019-05-02T19:00:22.886Z,6.13
2019-05-02T19:03:07.555Z,3.40
2019-05-02T19:05:32.513Z,3.80
2019-05-02T19:08:13.429Z,2.57
2019-05-02T19:10:44.731Z,2.70
2019-05-02T19:13:30.017Z,3.00
2019-05-02T19:16:09.455Z,3.20
2019-05-02T19:18:57.439Z,2.53
2019-05-02T19:21:39.445Z,2.90
2019-05-02T19:24:27.493Z,2.17
2019-05-02T19:27:13.386Z,3.85
2019-05-02T19:29:39.981Z,6.23
2019-05-02T19:32:28.423Z,2.30
2019-05-02T19:35:07.437Z,2.57
2019-05-02T19:37:55.087Z,4.53
2019-05-02T19:40:42.790Z,2.27
2019-05-02T19:43:23.060Z,1.83
2019-05-02T19:46:03.574Z,4.60
2019-05-02T19:48:49.822Z,2.20
2019-05-02T19:51:31.728Z,2.43
2019-05-02T19:54:18.139Z,2.73
2019-05-02T19:56:57.698Z,3.57
2019-05-02T19:59:26.320Z,1.73
2019-05-02T20:04:32.644Z,2.10
2019-05-02T20:10:17.947Z,1.40
2019-05-02T20:12:52.911Z,2.03
2019-05-02T20:18:43.934Z,2.40
2019-05-02T20:24:55.308Z,2.43
2019-05-02T20:27:32.796Z,2.10
2019-05-02T20:29:58.837Z,2.57
2019-05-02T20:32:45.300Z,2.40
2019-05-02T20:35:12.397Z,3.93
2019-05-02T20:37:58.909Z,2.10
2019-05-02T20:40:39.365Z,2.43
2019-05-02T20:43:25.494Z,1.43
2019-05-02T20:46:05.724Z,1.60
2019-05-02T20:48:32.375Z,1.40
2019-05-02T20:53:52.775Z,1.97
2019-05-02T20:56:39.093Z,1.90
2019-05-02T20:59:19.279Z,1.90
2019-05-02T21:01:45.800Z,2.03
2019-05-02T21:04:12.462Z,2.13
2019-05-02T21:07:18.565Z,1.80
2019-05-02T21:12:36.272Z,2.30
2019-05-02T21:15:22.619Z,1.47
2019-05-02T21:18:02.423Z,1.63
2019-05-02T21:20:48.687Z,1.83
2019-05-02T21:23:35.541Z,1.67
2019-05-02T21:26:16.778Z,1.50
2019-05-02T21:28:57.036Z,1.73
2019-05-02T21:31:43.489Z,1.60
2019-05-02T21:34:22.969Z,1.70
2019-05-02T21:37:09.219Z,1.60
2019-05-02T21:39:35.602Z,1.93
2019-05-02T21:42:22.645Z,1.83
2019-05-02T21:44:49.207Z,2.00
2019-05-02T21:47:15.550Z,1.83
2019-05-02T21:50:01.936Z,1.83
2019-05-02T21:53:02.142Z,1.93
2019-05-02T21:56:08.214Z,1.57
2019-05-02T21:59:07.721Z,1.93
2019-05-02T22:04:48.504Z,1.47
2019-05-02T22:07:34.874Z,2.00
2019-05-02T22:10:14.499Z,2.10
2019-05-02T22:12:54.524Z,2.50
2019-05-02T22:15:21.957Z,2.97
2019-05-02T22:20:28.514Z,2.10
2019-05-02T22:23:14.733Z,1.70
2019-05-02T22:25:54.578Z,1.80
2019-05-02T22:28:40.818Z,1.80
2019-05-02T22:31:22.621Z,1.70
2019-05-02T22:34:08.839Z,1.97
2019-05-02T22:36:48.718Z,2.40
2019-05-02T22:39:54.743Z,1.53
2019-05-02T22:45:32.224Z,1.90
2019-05-02T22:48:18.591Z,1.70
2019-05-02T22:50:58.576Z,1.87
2019-05-02T22:53:25.080Z,2.13
2019-05-02T22:55:51.849Z,2.50
2019-05-02T22:58:19.779Z,2.13
2019-05-02T23:01:06.313Z,2.10
2019-05-02T23:03:52.654Z,1.93
2019-05-02T23:06:32.653Z,1.73
2019-05-02T23:08:59.221Z,1.80
2019-05-02T23:11:38.784Z,1.47
2019-05-02T23:14:25.030Z,1.60
2019-05-02T23:17:05.167Z,1.90
2019-05-02T23:19:31.769Z,2.13
2019-05-02T23:31:04.882Z,1.83
2019-05-02T23:33:51.597Z,2.13
2019-05-02T23:36:32.710Z,2.47
2019-05-02T23:39:32.305Z,1.90
2019-05-02T23:42:13.536Z,1.57
2019-05-02T23:44:59.876Z,2.10
2019-05-02T23:47:39.455Z,1.50
2019-05-02T23:50:25.729Z,1.80
2019-05-02T23:53:05.558Z,2.13
2019-05-02T23:55:51.806Z,1.80
2019-05-02T23:58:32.026Z,2.50
